Time;durP1;ratioP1;P1;durP2;ratioP2;P2;SDS_P1;SDS_P2;PMS_P1;PMS_P2;Temp;Humidity;BMP_temperature;BMP_pressure;BME280_temperature;BME280_humidity;BME280_pressure;Samples;Min_cycle;Max_cycle;Signal;HPM_P1;HPM_P2
2022/05/30 00:00:16;;;;;;;6.07;2.53;;;8.40;99.90;;;;;;4985922;28;20129;-77
2022/05/30 00:02:42;;;;;;;8.07;2.10;;;8.40;99.90;;;;;;4971944;28;20767;-77
2022/05/30 00:05:09;;;;;;;9.10;2.35;;;8.40;99.90;;;;;;4969434;28;20077;-77
2022/05/30 00:07:39;;;;;;;7.82;2.40;;;8.30;99.90;;;;;;4972306;28;20030;-78
2022/05/30 00:10:07;;;;;;;6.28;1.83;;;8.40;99.90;;;;;;4967416;28;20046;-77
2022/05/30 00:12:33;;;;;;;5.25;2.10;;;8.40;99.90;;;;;;4970207;28;20577;-76
2022/05/30 00:14:59;;;;;;;4.10;1.60;;;8.40;99.90;;;;;;4967545;28;20125;-76
2022/05/30 00:17:25;;;;;;;5.85;2.00;;;8.30;99.90;;;;;;5005892;28;20042;-77
2022/05/30 00:19:51;;;;;;;6.22;1.85;;;8.30;99.90;;;;;;4972561;28;20049;-77
2022/05/30 00:22:18;;;;;;;6.97;2.53;;;8.30;99.90;;;;;;4964838;28;20045;-78
2022/05/30 00:24:44;;;;;;;7.05;2.33;;;8.30;99.90;;;;;;4988038;28;21430;-77
2022/05/30 00:27:11;;;;;;;4.07;1.60;;;8.30;99.90;;;;;;4982235;28;20029;-77
2022/05/30 00:29:38;;;;;;;3.85;1.60;;;8.30;99.90;;;;;;4987530;28;20446;-77
2022/05/30 00:32:05;;;;;;;5.72;1.58;;;8.30;99.90;;;;;;4985631;28;20521;-77
2022/05/30 00:34:32;;;;;;;4.75;1.70;;;8.30;99.90;;;;;;4963400;28;20038;-77
2022/05/30 00:36:58;;;;;;;4.53;1.65;;;8.20;99.90;;;;;;4988620;28;20045;-78
2022/05/30 00:39:24;;;;;;;4.07;1.50;;;8.20;99.90;;;;;;4987123;28;20648;-77
2022/05/30 00:41:50;;;;;;;3.10;1.52;;;8.20;99.90;;;;;;4987444;28;20034;-77
2022/05/30 00:44:16;;;;;;;5.50;1.80;;;8.20;99.90;;;;;;4972287;28;20148;-77
2022/05/30 00:46:41;;;;;;;3.60;1.45;;;8.10;99.90;;;;;;4955504;28;20045;-76
2022/05/30 00:49:12;;;;;;;6.45;2.00;;;8.20;99.90;;;;;;5002260;28;20414;-77
2022/05/30 00:51:48;;;;;;;4.97;1.50;;;8.10;99.90;;;;;;4967818;28;20041;-77
2022/05/30 00:54:32;;;;;;;4.28;1.30;;;8.10;99.90;;;;;;4970783;28;20093;-77
2022/05/30 00:57:01;;;;;;;4.88;1.70;;;8.20;99.90;;;;;;4987866;28;20049;-77
2022/05/30 00:59:27;;;;;;;2.72;1.55;;;8.10;99.90;;;;;;4987894;28;20072;-78
2022/05/30 01:01:53;;;;;;;4.82;1.50;;;8.00;99.90;;;;;;4971025;28;20125;-76
2022/05/30 01:07:08;;;;;;;5.63;2.13;;;8.00;99.90;;;;;;4985236;28;20049;-77
2022/05/30 01:09:36;;;;;;;3.53;1.33;;;8.00;99.90;;;;;;4971621;28;20084;-77
2022/05/30 01:12:08;;;;;;;3.08;1.50;;;8.00;99.90;;;;;;4971469;28;20693;-77
2022/05/30 01:14:37;;;;;;;3.15;1.30;;;7.90;99.90;;;;;;4968047;28;20030;-77
2022/05/30 01:17:10;;;;;;;5.28;1.75;;;7.90;99.90;;;;;;4986363;28;20523;-77
2022/05/30 01:19:55;;;;;;;7.32;1.52;;;7.90;99.90;;;;;;4985964;28;20088;-77
2022/05/30 01:22:56;;;;;;;3.63;1.20;;;7.80;99.90;;;;;;4985547;28;20368;-77
2022/05/30 01:25:58;;;;;;;6.28;1.40;;;7.80;99.90;;;;;;4985554;28;20082;-77
2022/05/30 01:28:26;;;;;;;3.47;1.35;;;7.70;99.90;;;;;;4986156;28;20100;-78
2022/05/30 01:30:53;;;;;;;5.03;1.27;;;7.70;99.90;;;;;;4965876;28;20760;-77
2022/05/30 01:33:19;;;;;;;6.72;1.42;;;7.70;99.90;;;;;;4969584;28;20048;-77
2022/05/30 01:35:44;;;;;;;3.88;1.58;;;7.60;99.90;;;;;;4968507;28;20057;-77
2022/05/30 01:38:10;;;;;;;5.78;2.00;;;7.60;99.90;;;;;;4971236;28;20494;-77
2022/05/30 01:40:36;;;;;;;3.55;1.40;;;7.60;99.90;;;;;;4986879;28;20041;-77
2022/05/30 01:43:02;;;;;;;4.47;1.42;;;7.50;99.90;;;;;;4970952;28;20049;-77
2022/05/30 01:45:28;;;;;;;3.25;1.50;;;7.50;99.90;;;;;;4988014;28;20042;-78
2022/05/30 01:47:54;;;;;;;6.25;1.70;;;7.40;99.90;;;;;;4986456;28;20034;-77
2022/05/30 01:50:21;;;;;;;2.80;1.30;;;7.40;99.90;;;;;;4987142;28;20577;-77
2022/05/30 01:52:47;;;;;;;5.05;1.38;;;7.40;99.90;;;;;;4966584;28;20099;-77
2022/05/30 01:55:13;;;;;;;6.68;1.45;;;7.30;99.90;;;;;;4949156;28;20041;-77
2022/05/30 01:57:39;;;;;;;4.40;1.83;;;7.30;99.90;;;;;;4950345;28;20068;-77
2022/05/30 02:00:07;;;;;;;3.50;1.45;;;7.30;99.90;;;;;;4987182;28;20138;-77
2022/05/30 02:02:34;;;;;;;5.22;1.70;;;7.30;99.90;;;;;;4987355;28;20037;-78
2022/05/30 02:05:00;;;;;;;4.53;1.30;;;7.20;99.90;;;;;;4948121;28;20026;-77
2022/05/30 02:07:26;;;;;;;2.97;1.60;;;7.20;99.90;;;;;;4970088;28;20111;-77
2022/05/30 02:09:52;;;;;;;4.32;1.25;;;7.10;99.90;;;;;;5003267;28;20197;-77
2022/05/30 02:12:18;;;;;;;3.20;1.65;;;7.10;99.90;;;;;;4981745;28;20499;-77
2022/05/30 02:14:44;;;;;;;4.22;1.52;;;7.00;99.90;;;;;;4987305;28;21194;-77
2022/05/30 02:17:10;;;;;;;3.83;1.50;;;7.00;99.90;;;;;;4970073;28;20552;-77
2022/05/30 02:19:40;;;;;;;5.50;2.00;;;6.90;99.90;;;;;;4986780;28;20061;-77
2022/05/30 02:22:09;;;;;;;4.32;1.65;;;6.90;99.90;;;;;;4965329;28;20128;-77
2022/05/30 02:24:36;;;;;;;4.25;1.58;;;6.90;99.90;;;;;;4986653;28;20104;-77
2022/05/30 02:27:02;;;;;;;6.30;2.05;;;6.80;99.90;;;;;;4961930;28;20038;-77
2022/05/30 02:29:28;;;;;;;6.80;1.90;;;6.80;99.90;;;;;;4987968;28;20038;-77
2022/05/30 02:31:54;;;;;;;2.65;1.63;;;6.80;99.90;;;;;;4966082;28;20093;-77
2022/05/30 02:37:04;;;;;;;8.63;1.70;;;6.80;99.90;;;;;;4978180;28;20053;-77
2022/05/30 02:39:30;;;;;;;5.75;2.08;;;6.70;99.90;;;;;;4986095;28;20124;-77
2022/05/30 02:41:56;;;;;;;7.03;2.22;;;6.70;99.90;;;;;;4986091;28;20502;-77
2022/05/30 02:44:24;;;;;;;7.88;2.40;;;6.70;99.90;;;;;;4955238;28;20038;-77
2022/05/30 02:46:52;;;;;;;3.70;2.10;;;6.80;99.90;;;;;;4954651;28;20125;-77
2022/05/30 02:49:18;;;;;;;5.55;2.35;;;6.70;99.90;;;;;;4983181;28;20043;-77
2022/05/30 02:51:45;;;;;;;5.85;2.67;;;6.60;99.90;;;;;;4987460;28;20116;-77
2022/05/30 02:54:11;;;;;;;6.28;2.38;;;6.80;99.90;;;;;;4954664;28;20042;-77
2022/05/30 02:56:37;;;;;;;7.22;2.40;;;6.60;99.90;;;;;;4954440;28;20394;-77
2022/05/30 02:59:04;;;;;;;4.03;2.92;;;6.60;99.90;;;;;;4970101;28;20044;-77
2022/05/30 03:01:33;;;;;;;6.05;2.30;;;6.70;99.90;;;;;;4971022;28;20038;-77
2022/05/30 03:04:01;;;;;;;5.18;2.47;;;6.70;99.90;;;;;;4985750;28;20050;-77
2022/05/30 03:06:28;;;;;;;10.38;3.10;;;6.70;99.90;;;;;;4984608;28;20149;-77
2022/05/30 03:08:56;;;;;;;9.32;2.75;;;6.70;99.90;;;;;;4969306;28;20045;-77
2022/05/30 03:11:22;;;;;;;7.05;2.97;;;6.70;99.90;;;;;;4986596;28;20048;-77
2022/05/30 03:13:48;;;;;;;7.50;3.17;;;6.70;99.90;;;;;;4984850;28;20054;-77
2022/05/30 03:16:14;;;;;;;8.57;3.00;;;6.70;99.90;;;;;;4985921;28;20045;-77
2022/05/30 03:18:40;;;;;;;10.70;2.60;;;6.70;99.90;;;;;;4954269;28;20030;-77
2022/05/30 03:21:06;;;;;;;6.63;2.63;;;6.70;99.90;;;;;;4953196;28;20049;-77
2022/05/30 03:23:32;;;;;;;4.15;2.53;;;6.70;99.90;;;;;;4969200;28;20038;-77
2022/05/30 03:25:58;;;;;;;7.10;2.45;;;6.70;99.90;;;;;;4970835;28;20036;-77
2022/05/30 03:28:24;;;;;;;6.00;2.50;;;6.60;99.90;;;;;;4990419;28;20127;-77
2022/05/30 03:30:50;;;;;;;5.75;2.92;;;6.70;99.90;;;;;;4990362;28;20042;-76
2022/05/30 03:33:17;;;;;;;8.23;2.42;;;6.70;99.90;;;;;;4989321;28;20041;-77
2022/05/30 03:35:43;;;;;;;6.32;2.50;;;6.70;99.90;;;;;;4989396;28;20499;-76
2022/05/30 03:38:09;;;;;;;5.47;2.60;;;6.70;99.90;;;;;;4974055;28;20124;-77
2022/05/30 03:40:38;;;;;;;3.90;2.58;;;6.70;99.90;;;;;;4991225;28;20121;-77
2022/05/30 03:43:09;;;;;;;3.90;2.47;;;6.70;99.90;;;;;;4988293;28;20046;-77
2022/05/30 03:45:40;;;;;;;6.10;2.92;;;6.70;99.90;;;;;;4989907;28;20446;-77
2022/05/30 03:48:07;;;;;;;8.20;2.60;;;6.70;99.90;;;;;;4989757;28;20424;-77
2022/05/30 03:50:33;;;;;;;5.50;2.55;;;6.70;99.90;;;;;;4988619;28;20450;-77
2022/05/30 03:53:04;;;;;;;4.32;2.50;;;6.70;99.90;;;;;;4987700;28;20104;-77
2022/05/30 03:55:34;;;;;;;5.95;3.10;;;6.70;99.90;;;;;;4973981;28;20041;-77
2022/05/30 03:58:01;;;;;;;5.97;2.70;;;6.70;99.90;;;;;;4966958;28;20128;-77
2022/05/30 04:00:27;;;;;;;5.95;3.00;;;6.70;99.90;;;;;;4988149;28;20118;-77
2022/05/30 04:02:53;;;;;;;7.78;3.38;;;6.70;99.90;;;;;;4987046;28;20038;-77
2022/05/30 04:05:20;;;;;;;6.78;3.00;;;6.70;99.90;;;;;;4956560;28;20117;-77
2022/05/30 04:07:46;;;;;;;5.32;2.92;;;6.70;99.90;;;;;;4970674;28;20078;-76
2022/05/30 04:10:14;;;;;;;6.22;3.55;;;6.70;99.90;;;;;;4969794;28;20065;-77
2022/05/30 04:12:43;;;;;;;8.77;2.95;;;6.70;99.90;;;;;;4965544;28;20519;-77
2022/05/30 04:15:16;;;;;;;6.72;2.75;;;6.70;99.90;;;;;;4988673;28;20049;-77
2022/05/30 04:17:42;;;;;;;11.45;3.60;;;6.70;99.90;;;;;;4970904;28;20080;-77
2022/05/30 04:20:08;;;;;;;9.65;3.28;;;6.70;99.90;;;;;;4972854;28;20069;-77
2022/05/30 04:22:34;;;;;;;7.35;2.80;;;6.70;99.90;;;;;;4971751;28;20849;-77
2022/05/30 04:24:59;;;;;;;8.65;3.42;;;6.70;99.90;;;;;;4988290;28;20041;-77
2022/05/30 04:27:25;;;;;;;8.13;2.70;;;6.80;99.90;;;;;;4987940;28;20080;-77
2022/05/30 04:29:51;;;;;;;6.20;3.28;;;6.70;99.90;;;;;;4972085;28;20077;-77
2022/05/30 04:32:17;;;;;;;4.88;3.28;;;6.80;99.90;;;;;;4977939;28;20038;-77
2022/05/30 04:34:43;;;;;;;9.13;3.42;;;6.80;99.90;;;;;;4975789;28;20519;-77
2022/05/30 04:37:09;;;;;;;5.65;2.80;;;6.80;99.90;;;;;;4989322;28;20073;-78
2022/05/30 04:39:35;;;;;;;6.25;3.15;;;6.80;99.90;;;;;;4975981;28;20530;-77
2022/05/30 04:42:02;;;;;;;7.13;2.80;;;6.80;99.90;;;;;;4977622;28;20042;-77
2022/05/30 04:44:27;;;;;;;7.38;3.22;;;6.80;99.90;;;;;;4992633;28;20044;-77
2022/05/30 04:46:58;;;;;;;5.53;3.00;;;6.90;99.90;;;;;;5005554;28;20037;-77
2022/05/30 04:49:25;;;;;;;6.22;3.38;;;6.90;99.90;;;;;;4971737;28;20049;-77
2022/05/30 04:51:51;;;;;;;9.25;3.75;;;7.00;99.90;;;;;;4972735;28;20041;-78
2022/05/30 04:54:18;;;;;;;9.38;3.40;;;7.00;99.90;;;;;;4970869;28;20095;-76
2022/05/30 04:56:44;;;;;;;4.85;2.92;;;7.00;99.90;;;;;;4971234;28;20042;-77
2022/05/30 04:59:10;;;;;;;5.82;3.10;;;7.00;99.90;;;;;;4990073;28;20041;-77
2022/05/30 05:01:37;;;;;;;4.55;2.90;;;7.10;99.90;;;;;;4987777;28;20049;-77
2022/05/30 05:04:05;;;;;;;6.10;3.03;;;7.10;99.90;;;;;;4972569;28;20475;-77
2022/05/30 05:06:31;;;;;;;6.40;3.30;;;7.10;99.90;;;;;;4984132;28;20042;-77
2022/05/30 05:09:15;;;;;;;10.30;3.13;;;7.10;99.90;;;;;;5001322;28;20068;-77
2022/05/30 05:11:42;;;;;;;5.85;2.90;;;7.20;99.90;;;;;;4987242;28;20042;-77
2022/05/30 05:14:08;;;;;;;8.10;3.28;;;7.20;99.90;;;;;;4987984;28;20156;-77
2022/05/30 05:16:34;;;;;;;5.15;2.85;;;7.30;99.90;;;;;;4987202;28;20041;-77
2022/05/30 05:19:00;;;;;;;4.85;2.88;;;7.30;99.90;;;;;;4955368;28;20065;-78
2022/05/30 05:21:39;;;;;;;5.50;3.17;;;7.30;99.90;;;;;;4955029;28;20447;-77
2022/05/30 05:24:07;;;;;;;6.05;2.95;;;7.30;99.90;;;;;;4986834;28;20045;-77
2022/05/30 05:26:33;;;;;;;6.07;3.22;;;7.40;99.90;;;;;;4988882;28;20034;-77
2022/05/30 05:28:59;;;;;;;5.22;2.90;;;7.40;99.90;;;;;;4987415;28;20095;-77
2022/05/30 05:31:33;;;;;;;7.35;3.08;;;7.40;99.90;;;;;;4970098;28;20076;-77
2022/05/30 05:34:00;;;;;;;10.90;3.05;;;7.50;99.90;;;;;;4968254;28;20038;-77
2022/05/30 05:36:31;;;;;;;9.32;3.25;;;7.60;99.90;;;;;;4970753;28;20054;-77
2022/05/30 05:38:57;;;;;;;6.93;3.15;;;7.60;99.90;;;;;;4985475;28;20046;-77
2022/05/30 05:41:23;;;;;;;6.35;3.00;;;7.60;99.90;;;;;;4954102;28;20620;-77
2022/05/30 05:43:50;;;;;;;10.27;3.30;;;7.60;99.90;;;;;;4970430;28;20120;-77
2022/05/30 05:46:21;;;;;;;7.65;3.90;;;7.60;99.90;;;;;;4984520;28;20040;-77
2022/05/30 05:48:47;;;;;;;5.88;2.85;;;7.60;99.90;;;;;;4986131;28;20479;-77
2022/05/30 05:51:17;;;;;;;7.20;3.38;;;7.60;99.90;;;;;;4937166;28;20034;-77
2022/05/30 05:53:43;;;;;;;7.00;3.08;;;7.60;99.90;;;;;;4972977;28;20122;-77
2022/05/30 05:56:20;;;;;;;9.23;2.80;;;7.60;99.90;;;;;;4983830;28;20085;-77
2022/05/30 05:58:47;;;;;;;8.27;3.08;;;7.70;99.90;;;;;;4969750;28;20044;-77
2022/05/30 06:01:22;;;;;;;9.45;3.15;;;7.70;99.90;;;;;;4987033;28;20052;-77
2022/05/30 06:03:51;;;;;;;8.07;3.08;;;7.70;99.90;;;;;;4985550;28;20523;-77
2022/05/30 06:06:16;;;;;;;5.50;2.92;;;7.70;99.90;;;;;;4984884;28;20041;-77
2022/05/30 06:08:42;;;;;;;6.68;3.00;;;7.70;99.90;;;;;;4985017;28;20029;-77
2022/05/30 06:11:08;;;;;;;9.00;2.92;;;7.80;99.90;;;;;;4985531;28;20802;-77
2022/05/30 06:13:39;;;;;;;10.35;3.63;;;7.80;99.90;;;;;;4955022;28;20049;-76
2022/05/30 06:16:13;;;;;;;6.60;3.05;;;7.80;99.90;;;;;;4978034;28;20096;-77
2022/05/30 06:18:39;;;;;;;6.95;2.85;;;7.80;99.90;;;;;;4963399;28;20042;-76
2022/05/30 06:21:05;;;;;;;8.68;3.50;;;7.80;99.90;;;;;;4980515;28;20045;-76
2022/05/30 06:23:31;;;;;;;3.47;2.70;;;7.90;99.90;;;;;;4965083;28;20058;-76
2022/05/30 06:26:01;;;;;;;4.60;3.08;;;7.90;99.90;;;;;;4964236;28;20053;-76
2022/05/30 06:28:28;;;;;;;5.43;3.00;;;8.00;99.90;;;;;;4961198;28;20038;-76
2022/05/30 06:30:54;;;;;;;9.40;2.92;;;8.10;99.90;;;;;;4979378;28;20521;-76
2022/05/30 06:33:20;;;;;;;4.97;3.17;;;8.20;99.90;;;;;;4979484;28;20487;-76
2022/05/30 06:35:45;;;;;;;7.50;3.10;;;8.30;99.90;;;;;;4963658;28;20050;-76
2022/05/30 06:38:12;;;;;;;7.05;3.10;;;8.50;99.90;;;;;;4963089;28;20050;-76
2022/05/30 06:40:38;;;;;;;5.65;2.67;;;8.60;99.90;;;;;;4973615;28;20038;-76
2022/05/30 06:43:04;;;;;;;4.57;2.47;;;8.70;99.90;;;;;;4980850;28;20116;-76
2022/05/30 06:45:32;;;;;;;9.00;2.80;;;8.90;99.90;;;;;;4971644;28;20069;-77
2022/05/30 06:47:58;;;;;;;5.28;2.28;;;9.00;99.90;;;;;;4996325;28;20124;-76
2022/05/30 06:50:25;;;;;;;4.30;2.42;;;9.10;99.90;;;;;;4964348;28;20120;-76
2022/05/30 06:52:50;;;;;;;8.43;2.80;;;9.30;99.90;;;;;;4965364;28;20041;-76
2022/05/30 06:55:16;;;;;;;8.00;2.83;;;9.40;99.90;;;;;;4948548;28;20403;-76
2022/05/30 07:00:26;;;;;;;4.28;2.60;;;9.60;99.90;;;;;;4977794;28;20045;-76
2022/05/30 07:02:52;;;;;;;6.00;2.83;;;9.70;99.90;;;;;;4964942;28;20117;-76
2022/05/30 07:05:18;;;;;;;5.28;2.75;;;9.70;99.90;;;;;;4952747;28;20108;-76
2022/05/30 07:07:45;;;;;;;8.98;3.05;;;9.80;99.90;;;;;;4984263;28;20513;-76
2022/05/30 07:10:11;;;;;;;6.22;2.53;;;9.80;99.90;;;;;;4998063;28;20136;-76
2022/05/30 07:12:37;;;;;;;4.43;2.63;;;10.00;99.90;;;;;;4984021;28;20137;-76
2022/05/30 07:15:04;;;;;;;8.27;2.88;;;10.10;99.90;;;;;;4985079;28;20057;-76
2022/05/30 07:17:29;;;;;;;6.30;3.13;;;10.30;99.90;;;;;;4967842;28;20099;-76
2022/05/30 07:19:57;;;;;;;9.80;3.33;;;10.40;99.90;;;;;;4949946;28;20054;-76
2022/05/30 07:22:23;;;;;;;3.63;1.27;;;10.40;99.90;;;;;;4973010;28;20059;-76
2022/05/30 07:24:49;;;;;;;1.55;1.10;;;10.50;99.90;;;;;;4982527;28;20041;-76
2022/05/30 07:27:15;;;;;;;4.97;1.50;;;10.60;99.90;;;;;;5001765;28;20074;-76
2022/05/30 07:29:41;;;;;;;4.90;1.30;;;10.60;99.90;;;;;;4952623;28;20822;-76
2022/05/30 07:32:07;;;;;;;4.20;1.23;;;10.70;99.90;;;;;;4951489;28;20048;-76
2022/05/30 07:34:33;;;;;;;1.92;1.30;;;10.70;99.90;;;;;;4982546;28;20486;-76
2022/05/30 07:36:59;;;;;;;3.15;1.90;;;10.80;99.90;;;;;;4967052;28;20085;-75
2022/05/30 07:39:25;;;;;;;2.42;1.60;;;11.00;99.90;;;;;;4981260;28;20103;-76
2022/05/30 07:41:54;;;;;;;3.17;1.63;;;11.20;99.90;;;;;;4983765;28;20054;-76
2022/05/30 07:44:19;;;;;;;2.33;1.40;;;11.30;99.90;;;;;;4983026;28;20092;-77
2022/05/30 07:46:45;;;;;;;4.82;1.80;;;11.70;99.90;;;;;;4968317;28;20046;-77
2022/05/30 07:49:12;;;;;;;3.10;1.30;;;11.90;99.90;;;;;;4959924;28;20034;-70
2022/05/30 07:51:38;;;;;;;4.18;1.67;;;12.10;99.90;;;;;;4964824;28;20110;-71
2022/05/30 07:54:05;;;;;;;2.42;1.30;;;12.40;99.90;;;;;;4967556;28;20038;-71
2022/05/30 07:56:31;;;;;;;4.20;1.10;;;12.70;99.90;;;;;;4982520;28;20056;-71
2022/05/30 07:58:56;;;;;;;2.10;0.95;;;12.80;99.90;;;;;;4964891;28;20042;-71
2022/05/30 08:01:23;;;;;;;2.20;1.20;;;12.90;99.90;;;;;;4964930;28;20041;-71
2022/05/30 08:03:52;;;;;;;1.30;1.10;;;12.70;99.90;;;;;;4982031;28;20033;-71
2022/05/30 08:06:24;;;;;;;1.45;1.00;;;12.50;99.90;;;;;;4980886;28;20053;-75
2022/05/30 08:08:51;;;;;;;2.45;1.10;;;12.40;99.90;;;;;;4981198;28;20510;-76
2022/05/30 08:11:17;;;;;;;2.55;1.10;;;12.10;99.90;;;;;;4948532;28;20232;-76
2022/05/30 08:13:45;;;;;;;3.67;0.95;;;12.10;99.90;;;;;;4983518;28;20176;-76
2022/05/30 08:16:16;;;;;;;4.65;1.25;;;12.00;99.90;;;;;;4980433;28;20086;-75
2022/05/30 08:18:42;;;;;;;2.38;1.30;;;12.00;99.90;;;;;;4965569;28;20271;-76
2022/05/30 08:21:08;;;;;;;1.70;0.90;;;12.00;99.90;;;;;;4965157;28;20135;-76
2022/05/30 08:23:34;;;;;;;1.65;0.90;;;12.00;99.90;;;;;;4952659;28;20045;-76
2022/05/30 08:25:59;;;;;;;1.85;1.13;;;12.10;99.90;;;;;;4971293;28;20380;-76
2022/05/30 08:28:25;;;;;;;1.60;0.80;;;12.10;99.90;;;;;;4951919;28;20475;-75
2022/05/30 08:30:51;;;;;;;0.70;0.70;;;12.00;99.90;;;;;;5001446;28;20495;-76
2022/05/30 08:33:19;;;;;;;1.33;0.80;;;11.90;99.90;;;;;;4979404;28;20038;-76
2022/05/30 08:35:47;;;;;;;1.55;0.90;;;11.80;99.90;;;;;;4981761;28;20080;-76
2022/05/30 08:38:13;;;;;;;4.03;1.00;;;11.80;99.90;;;;;;4997630;28;20050;-76
2022/05/30 08:43:35;;;;;;;3.42;0.80;;;11.80;99.90;;;;;;4981618;28;20056;-76
2022/05/30 08:46:18;;;;;;;2.50;1.00;;;11.70;99.90;;;;;;4993419;28;20451;-77
2022/05/30 08:48:52;;;;;;;4.82;1.02;;;11.80;99.90;;;;;;4994318;28;20033;-76
2022/05/30 08:51:42;;;;;;;3.30;1.00;;;11.70;99.90;;;;;;4976953;28;20045;-77
2022/05/30 08:54:14;;;;;;;2.00;1.10;;;11.70;99.90;;;;;;4984630;28;20065;-77
2022/05/30 08:56:43;;;;;;;1.10;0.90;;;11.90;99.90;;;;;;4991884;28;20139;-77
2022/05/30 08:59:47;;;;;;;2.10;1.00;;;12.30;99.90;;;;;;4994170;28;20053;-77
2022/05/30 09:02:34;;;;;;;1.40;0.77;;;12.60;99.90;;;;;;4973238;28;20053;-77
2022/05/30 09:05:09;;;;;;;3.95;1.25;;;13.20;99.90;;;;;;4982897;28;20070;-77
2022/05/30 09:07:41;;;;;;;1.25;0.65;;;13.40;99.90;;;;;;4986489;28;20042;-77
2022/05/30 09:10:13;;;;;;;;;;;13.60;99.90;;;;;;4990052;28;20046;-77
2022/05/30 09:12:56;;;;;;;2.25;0.80;;;13.70;99.90;;;;;;4997109;28;19928;-77
2022/05/30 09:15:34;;;;;;;0.93;0.82;;;13.80;99.90;;;;;;4975700;28;20511;-77
2022/05/30 09:18:00;;;;;;;2.65;1.05;;;13.90;99.90;;;;;;4979190;28;20038;-77
2022/05/30 09:20:28;;;;;;;0.80;0.70;;;14.00;99.90;;;;;;4993015;28;20504;-77
2022/05/30 09:22:54;;;;;;;1.80;0.68;;;13.80;99.90;;;;;;4977380;28;20049;-78
2022/05/30 09:28:17;;;;;;;2.03;0.63;;;13.40;99.90;;;;;;4988651;28;20034;-77
2022/05/30 09:31:15;;;;;;;1.50;0.95;;;13.10;99.90;;;;;;4976848;28;20034;-77
2022/05/30 09:33:44;;;;;;;4.95;0.88;;;12.90;99.90;;;;;;4972574;28;20046;-77
2022/05/30 09:36:12;;;;;;;2.75;0.95;;;12.70;99.90;;;;;;4975807;28;20058;-77
2022/05/30 09:38:43;;;;;;;0.77;0.77;;;12.70;99.90;;;;;;4978976;28;20053;-77
2022/05/30 09:41:17;;;;;;;0.75;0.73;;;12.60;99.90;;;;;;4977802;28;20039;-78
2022/05/30 09:43:54;;;;;;;1.45;0.90;;;12.50;99.90;;;;;;4981732;28;20037;-77
2022/05/30 09:46:42;;;;;;;3.38;0.95;;;12.50;99.90;;;;;;4972492;28;20045;-77
2022/05/30 09:49:23;;;;;;;2.10;1.10;;;12.30;99.90;;;;;;4984938;28;20046;-79
2022/05/30 09:51:53;;;;;;;3.13;1.25;;;12.00;99.90;;;;;;4992857;28;20049;-78
2022/05/30 09:54:25;;;;;;;2.20;0.93;;;11.90;99.90;;;;;;4977147;28;20046;-78
2022/05/30 09:57:01;;;;;;;2.28;1.00;;;11.80;99.90;;;;;;4976690;28;20092;-78
2022/05/30 09:59:45;;;;;;;1.58;0.90;;;11.80;99.90;;;;;;4990612;28;20533;-79
2022/05/30 10:02:20;;;;;;;1.10;1.00;;;11.80;99.90;;;;;;4988847;28;20045;-79
2022/05/30 10:04:46;;;;;;;1.88;0.93;;;11.90;99.90;;;;;;4974327;28;20041;-78
2022/05/30 10:07:19;;;;;;;2.75;1.13;;;12.00;99.90;;;;;;4960645;28;20034;-79
2022/05/30 10:09:52;;;;;;;1.77;1.17;;;12.00;99.90;;;;;;4990906;28;20037;-78
2022/05/30 10:12:52;;;;;;;2.20;1.10;;;12.00;99.90;;;;;;4979418;28;20128;-78
2022/05/30 10:15:28;;;;;;;1.88;1.10;;;12.10;99.90;;;;;;4979559;28;20042;-79
2022/05/30 10:17:57;;;;;;;2.08;1.20;;;12.20;99.90;;;;;;4993507;28;20038;-78
2022/05/30 10:21:00;;;;;;;1.63;0.90;;;12.30;99.90;;;;;;4977797;28;20380;-79
2022/05/30 10:29:50;;;;;;;1.02;0.80;;;12.70;99.90;;;;;;4976668;28;20071;-79
2022/05/30 10:32:34;;;;;;;1.07;0.50;;;12.70;99.90;;;;;;4976469;28;20557;-79
2022/05/30 10:35:23;;;;;;;0.77;0.77;;;12.80;99.90;;;;;;4980831;28;20038;-79
2022/05/30 10:38:16;;;;;;;0.90;0.90;;;12.80;99.90;;;;;;4997079;28;20128;-79
2022/05/30 10:40:52;;;;;;;;;;;12.90;99.90;;;;;;4986825;28;20112;-78
2022/05/30 10:43:29;;;;;;;0.55;0.55;;;13.00;99.90;;;;;;4993869;28;19925;-78
2022/05/30 10:46:07;;;;;;;0.43;0.43;;;13.00;99.90;;;;;;4980532;28;20041;-78
2022/05/30 10:48:40;;;;;;;0.77;0.70;;;13.10;99.90;;;;;;4995174;28;20038;-79
2022/05/30 10:51:28;;;;;;;0.55;0.55;;;13.10;99.90;;;;;;4980288;28;20123;-78
2022/05/30 10:54:13;;;;;;;0.47;0.47;;;13.20;99.90;;;;;;4969236;28;20083;-78
2022/05/30 10:56:49;;;;;;;1.63;0.90;;;13.30;99.90;;;;;;4980242;28;20038;-78
2022/05/30 10:59:31;;;;;;;1.65;0.73;;;13.50;99.90;;;;;;4980247;28;20096;-78
2022/05/30 11:02:09;;;;;;;0.60;0.40;;;13.80;99.90;;;;;;4978992;28;20101;-78
2022/05/30 11:04:53;;;;;;;0.50;0.50;;;14.30;99.90;;;;;;4979939;28;20132;-78
2022/05/30 11:07:45;;;;;;;0.22;0.22;;;14.50;99.90;;;;;;4995327;28;20042;-78
2022/05/30 11:10:38;;;;;;;1.75;0.50;;;14.60;99.90;;;;;;4993702;28;20041;-78
2022/05/30 11:13:41;;;;;;;1.15;0.63;;;14.40;99.90;;;;;;4993939;28;20402;-79
2022/05/30 11:16:28;;;;;;;1.05;0.60;;;14.10;99.90;;;;;;4986042;28;20510;-77
2022/05/30 11:19:09;;;;;;;0.50;0.50;;;13.80;99.90;;;;;;4995676;28;20062;-78
2022/05/30 11:22:00;;;;;;;1.42;0.50;;;13.70;99.90;;;;;;4996105;28;20052;-78
2022/05/30 11:24:27;;;;;;;1.15;0.60;;;13.70;99.90;;;;;;4978553;28;20068;-78
2022/05/30 11:27:14;;;;;;;2.55;0.82;;;13.70;99.90;;;;;;4984253;28;20053;-78
2022/05/30 11:29:48;;;;;;;1.55;0.45;;;13.60;99.90;;;;;;4981996;28;20121;-78
2022/05/30 11:32:30;;;;;;;0.93;0.70;;;13.70;99.90;;;;;;4975136;28;20053;-78
2022/05/30 11:35:29;;;;;;;0.88;0.65;;;13.80;99.90;;;;;;4965883;28;20038;-78
2022/05/30 11:38:09;;;;;;;1.45;0.68;;;14.10;99.90;;;;;;4979231;28;20050;-78
2022/05/30 11:40:55;;;;;;;1.23;0.40;;;14.40;99.90;;;;;;4959164;28;20471;-78
2022/05/30 11:43:36;;;;;;;1.02;0.60;;;14.50;99.90;;;;;;4997018;28;20156;-78
2022/05/30 11:46:12;;;;;;;0.45;0.40;;;14.50;99.90;;;;;;4979980;28;20171;-78
2022/05/30 11:48:46;;;;;;;1.75;0.85;;;14.70;99.90;;;;;;4982011;28;20514;-78
2022/05/30 11:51:26;;;;;;;1.25;0.60;;;14.70;99.90;;;;;;4963793;28;20046;-78
2022/05/30 11:54:13;;;;;;;0.30;0.30;;;14.70;99.90;;;;;;4956026;28;20038;-77
2022/05/30 11:57:09;;;;;;;0.52;0.50;;;14.80;99.90;;;;;;4962582;28;20042;-77
2022/05/30 11:59:49;;;;;;;0.98;0.57;;;14.70;99.90;;;;;;4973602;28;21109;-77
2022/05/30 12:02:41;;;;;;;0.75;0.75;;;14.50;99.90;;;;;;4959347;28;20403;-77
2022/05/30 12:05:16;;;;;;;1.42;0.85;;;14.30;99.90;;;;;;4963827;28;20495;-77
2022/05/30 12:08:03;;;;;;;1.52;0.90;;;14.00;99.90;;;;;;4974315;28;20569;-77
2022/05/30 12:10:51;;;;;;;0.80;0.60;;;13.80;99.90;;;;;;4970533;28;20174;-78
2022/05/30 12:13:59;;;;;;;0.80;0.50;;;13.70;99.90;;;;;;4979954;28;20209;-78
2022/05/30 12:16:44;;;;;;;1.27;0.73;;;13.60;99.90;;;;;;4938118;28;21065;-78
2022/05/30 12:25:00;;;;;;;0.70;0.60;;;13.20;99.90;;;;;;4959196;28;20050;-78
2022/05/30 12:27:26;;;;;;;2.03;0.98;;;13.20;99.90;;;;;;4965948;28;20038;-78
2022/05/30 12:29:53;;;;;;;1.85;1.00;;;13.20;99.90;;;;;;4951322;28;20510;-78
2022/05/30 12:32:23;;;;;;;1.50;0.60;;;13.10;99.90;;;;;;4965298;28;20045;-78
2022/05/30 12:35:00;;;;;;;1.02;0.70;;;13.10;99.90;;;;;;4959074;28;20492;-78
2022/05/30 12:38:01;;;;;;;2.25;1.45;;;13.10;99.90;;;;;;4991624;28;20100;-78
2022/05/30 12:40:26;;;;;;;1.88;0.60;;;13.20;99.90;;;;;;4973172;28;20050;-77
2022/05/30 12:43:23;;;;;;;0.98;0.85;;;13.20;99.90;;;;;;4961806;28;20480;-78
2022/05/30 12:45:55;;;;;;;2.75;1.27;;;13.10;99.90;;;;;;4979778;28;20052;-77
2022/05/30 12:48:46;;;;;;;6.82;1.10;;;13.00;99.90;;;;;;4978209;28;20046;-77
2022/05/30 12:51:15;;;;;;;3.58;1.08;;;13.00;99.90;;;;;;4979049;28;20049;-77
2022/05/30 12:53:58;;;;;;;1.75;0.73;;;13.00;99.90;;;;;;4979571;28;20096;-78
2022/05/30 12:56:39;;;;;;;2.38;1.02;;;13.00;99.90;;;;;;4977697;28;20042;-78
2022/05/30 12:59:11;;;;;;;3.50;0.80;;;13.00;99.90;;;;;;4960016;28;20038;-78
2022/05/30 13:01:43;;;;;;;1.73;0.68;;;13.10;99.90;;;;;;4962611;28;20144;-78
2022/05/30 13:04:27;;;;;;;1.27;1.17;;;13.10;99.90;;;;;;4980135;28;20042;-78
2022/05/30 13:06:58;;;;;;;1.55;0.93;;;13.10;99.90;;;;;;4984420;28;20050;-78
2022/05/30 13:09:46;;;;;;;2.63;1.47;;;13.10;99.90;;;;;;4961913;28;20044;-78
2022/05/30 13:12:11;;;;;;;2.40;1.10;;;13.20;99.90;;;;;;4982933;28;20077;-77
2022/05/30 13:14:39;;;;;;;1.50;1.05;;;13.10;99.90;;;;;;4980878;28;20568;-77
2022/05/30 13:17:23;;;;;;;1.27;1.02;;;13.10;99.90;;;;;;4982255;28;20502;-76
2022/05/30 13:19:58;;;;;;;1.88;1.10;;;13.20;99.90;;;;;;4978517;28;20047;-77
2022/05/30 13:22:45;;;;;;;2.55;1.20;;;13.20;99.90;;;;;;4977592;28;20523;-76
2022/05/30 13:25:14;;;;;;;1.75;1.00;;;13.20;99.90;;;;;;4981317;28;20548;-77
2022/05/30 13:27:44;;;;;;;1.90;1.00;;;13.20;99.90;;;;;;4982068;28;20100;-77
2022/05/30 13:30:33;;;;;;;1.27;1.10;;;13.20;99.90;;;;;;4965410;28;20049;-77
2022/05/30 13:32:59;;;;;;;1.05;0.90;;;13.30;99.90;;;;;;4965532;28;20057;-77
2022/05/30 13:35:30;;;;;;;0.73;0.65;;;13.40;99.90;;;;;;4965113;28;20061;-77
2022/05/30 13:38:03;;;;;;;2.28;0.95;;;13.40;99.90;;;;;;4997078;28;20050;-77
2022/05/30 13:40:31;;;;;;;1.98;1.08;;;13.50;99.90;;;;;;4967065;28;20053;-77